Time;durP1;ratioP1;P1;durP2;ratioP2;P2;SDS_P1;SDS_P2;PMS_P1;PMS_P2;Temp;Humidity;BMP_temperature;BMP_pressure;BME280_temperature;BME280_humidity;BME280_pressure;Samples;Min_cycle;Max_cycle;Signal;HPM_P1;HPM_P2
2021/06/08 00:00:57;;;;;;;;;;;;;;;;;;1478957;40;7011;-62
2021/06/08 00:02:00;;;;;;;;;;;;;;;;;;1479081;40;7012;-63
2021/06/08 00:03:04;;;;;;;;;;;;;;;;;;1479120;40;7092;-62
2021/06/08 00:04:06;;;;;;;;;;;;;;;;;;1483161;40;7941;-65
2021/06/08 00:05:09;;;;;;;;;;;;;;;;;;1483277;40;6999;-65
2021/06/08 00:06:12;;;;;;;;;;;;;;;;;;1483329;40;7130;-66
2021/06/08 00:07:14;;;;;;;;;;;;;;;;;;1483211;40;7007;-62
2021/06/08 00:08:17;;;;;;;;;;;;;;;;;;1483175;40;7052;-65
2021/06/08 00:09:19;;;;;;;;;;;;;;;;;;1483427;40;7003;-60
2021/06/08 00:10:22;;;;;;;;;;;;;;;;;;1483552;40;7035;-63
2021/06/08 00:11:24;;;;;;;;;;;;;;;;;;1483549;40;7193;-67
2021/06/08 00:12:27;;;;;;;;;;;;;;;;;;1483111;40;7012;-63
2021/06/08 00:13:29;;;;;;;;;;;;;;;;;;1483329;40;7012;-63
2021/06/08 00:14:32;;;;;;;;;;;;;;;;;;1483081;40;7016;-62
2021/06/08 00:15:34;;;;;;;;;;;;;;;;;;1483152;40;7003;-67
2021/06/08 00:16:37;;;;;;;;;;;;;;;;;;1482989;40;7479;-63
2021/06/08 00:17:40;;;;;;;;;;;;;;;;;;1481361;40;7016;-64
2021/06/08 00:18:42;;;;;;;;;;;;;;;;;;1478154;40;7242;-63
2021/06/08 00:19:44;;;;;;;;;;;;;;;;;;1478090;40;7043;-65
2021/06/08 00:20:47;;;;;;;;;;;;;;;;;;1478729;40;7219;-64
2021/06/08 00:21:50;;;;;;;;;;;;;;;;;;1481538;40;7109;-64
2021/06/08 00:22:52;;;;;;;;;;;;;;;;;;1481581;40;7352;-66
2021/06/08 00:23:55;;;;;;;;;;;;;;;;;;1478313;40;7026;-63
2021/06/08 00:24:57;;;;;;;;;;;;;;;;;;1480173;40;7007;-63
2021/06/08 00:26:00;;;;;;;;;;;;;;;;;;1482031;40;8867;-65
2021/06/08 00:27:02;;;;;;;;;;;;;;;;;;1478683;40;7003;-63
2021/06/08 00:28:05;;;;;;;;;;;;;;;;;;1478119;40;7075;-66
2021/06/08 00:29:08;;;;;;;;;;;;;;;;;;1478577;40;7126;-63
2021/06/08 00:30:10;;;;;;;;;;;;;;;;;;1478839;40;7039;-63
2021/06/08 00:31:13;;;;;;;;;;;;;;;;;;1480901;40;7939;-63
2021/06/08 00:32:15;;;;;;;;;;;;;;;;;;1482819;40;7166;-62
2021/06/08 00:33:18;;;;;;;;;;;;;;;;;;1482806;40;7012;-63
2021/06/08 00:34:20;;;;;;;;;;;;;;;;;;1483154;40;7533;-64
2021/06/08 00:35:23;;;;;;;;;;;;;;;;;;1483121;40;7003;-63
2021/06/08 00:36:25;;;;;;;;;;;;;;;;;;1482872;40;6999;-62
2021/06/08 00:37:28;;;;;;;;;;;;;;;;;;1482550;40;7467;-65
2021/06/08 00:38:30;;;;;;;;;;;;;;;;;;1483208;40;7000;-64
2021/06/08 00:39:32;;;;;;;;;;;;;;;;;;1483297;40;7055;-64
2021/06/08 00:40:35;;;;;;;;;;;;;;;;;;1483089;40;7019;-62
2021/06/08 00:41:42;;;;;;;;;;;;;;;;;;1483121;40;7000;-63
2021/06/08 00:42:45;;;;;;;;;;;;;;;;;;1478979;40;6999;-63
2021/06/08 00:43:47;;;;;;;;;;;;;;;;;;1479054;40;7031;-63
2021/06/08 00:44:50;;;;;;;;;;;;;;;;;;1478985;40;7380;-62
2021/06/08 00:45:53;;;;;;;;;;;;;;;;;;1478820;40;7012;-64
2021/06/08 00:46:56;;;;;;;;;;;;;;;;;;1479936;40;7011;-61
2021/06/08 00:47:59;;;;;;;;;;;;;;;;;;1482880;40;7895;-64
2021/06/08 00:49:02;;;;;;;;;;;;;;;;;;1482949;40;7039;-66
2021/06/08 00:50:05;;;;;;;;;;;;;;;;;;1482815;40;7063;-65
2021/06/08 00:51:07;;;;;;;;;;;;;;;;;;1479311;40;7007;-64
2021/06/08 00:52:10;;;;;;;;;;;;;;;;;;1478653;40;7051;-66
2021/06/08 00:53:12;;;;;;;;;;;;;;;;;;1478845;40;7883;-64
2021/06/08 00:54:14;;;;;;;;;;;;;;;;;;1478953;40;7886;-64
2021/06/08 00:55:17;;;;;;;;;;;;;;;;;;1478971;40;6999;-66
2021/06/08 00:56:20;;;;;;;;;;;;;;;;;;1478763;40;7031;-63
2021/06/08 00:57:23;;;;;;;;;;;;;;;;;;1478936;40;7011;-62
2021/06/08 00:58:25;;;;;;;;;;;;;;;;;;1478854;40;7219;-63
2021/06/08 00:59:28;;;;;;;;;;;;;;;;;;1479043;40;7860;-62
2021/06/08 01:00:30;;;;;;;;;;;;;;;;;;1478760;40;7893;-64
2021/06/08 01:01:33;;;;;;;;;;;;;;;;;;1478872;40;7035;-63
2021/06/08 01:02:36;;;;;;;;;;;;;;;;;;1478822;40;7011;-64
2021/06/08 01:03:39;;;;;;;;;;;;;;;;;;1478924;40;7123;-66
2021/06/08 01:04:41;;;;;;;;;;;;;;;;;;1478717;40;7039;-64
2021/06/08 01:05:44;;;;;;;;;;;;;;;;;;1478894;40;7858;-62
2021/06/08 01:06:48;;;;;;;;;;;;;;;;;;1478781;40;7943;-62
2021/06/08 01:07:50;;;;;;;;;;;;;;;;;;1479029;40;7906;-63
2021/06/08 01:08:53;;;;;;;;;;;;;;;;;;1478928;40;7035;-61
2021/06/08 01:09:56;;;;;;;;;;;;;;;;;;1478999;40;7912;-63
2021/06/08 01:10:59;;;;;;;;;;;;;;;;;;1479001;40;7169;-65
2021/06/08 01:12:01;;;;;;;;;;;;;;;;;;1478894;40;7047;-63
2021/06/08 01:13:04;;;;;;;;;;;;;;;;;;1478805;40;8061;-64
2021/06/08 01:14:06;;;;;;;;;;;;;;;;;;1478818;40;7031;-63
2021/06/08 01:15:10;;;;;;;;;;;;;;;;;;1479038;40;8953;-61
2021/06/08 01:16:12;;;;;;;;;;;;;;;;;;1479171;40;7027;-63
2021/06/08 01:17:15;;;;;;;;;;;;;;;;;;1478720;40;7431;-62
2021/06/08 01:18:17;;;;;;;;;;;;;;;;;;1482501;40;7207;-63
2021/06/08 01:19:20;;;;;;;;;;;;;;;;;;1481559;40;7039;-64
2021/06/08 01:20:22;;;;;;;;;;;;;;;;;;1482201;40;7070;-64
2021/06/08 01:21:27;;;;;;;;;;;;;;;;;;1480481;40;7031;-66
2021/06/08 01:22:30;;;;;;;;;;;;;;;;;;1482596;40;7954;-63
2021/06/08 01:23:33;;;;;;;;;;;;;;;;;;1478635;40;7004;-63
2021/06/08 01:24:35;;;;;;;;;;;;;;;;;;1478937;40;7915;-63
2021/06/08 01:25:38;;;;;;;;;;;;;;;;;;1478401;40;7132;-66
2021/06/08 01:26:41;;;;;;;;;;;;;;;;;;1478517;40;7970;-63
2021/06/08 01:27:44;;;;;;;;;;;;;;;;;;1478516;40;7117;-65
2021/06/08 01:28:47;;;;;;;;;;;;;;;;;;1478616;40;6999;-65
2021/06/08 01:29:51;;;;;;;;;;;;;;;;;;1478437;40;7011;-63
2021/06/08 01:30:55;;;;;;;;;;;;;;;;;;1478526;40;7932;-64
2021/06/08 01:31:59;;;;;;;;;;;;;;;;;;1478542;40;7015;-61
2021/06/08 01:33:01;;;;;;;;;;;;;;;;;;1478489;40;7129;-62
2021/06/08 01:34:04;;;;;;;;;;;;;;;;;;1479110;40;7016;-65
2021/06/08 01:35:08;;;;;;;;;;;;;;;;;;1479220;40;7915;-64
2021/06/08 01:36:16;;;;;;;;;;;;;;;;;;1478526;40;7040;-65
2021/06/08 01:37:19;;;;;;;;;;;;;;;;;;1478431;40;7907;-65
2021/06/08 01:38:22;;;;;;;;;;;;;;;;;;1478580;40;7108;-64
2021/06/08 01:39:26;;;;;;;;;;;;;;;;;;1479032;40;7164;-63
2021/06/08 01:40:28;;;;;;;;;;;;;;;;;;1479131;40;7044;-64
2021/06/08 01:41:31;;;;;;;;;;;;;;;;;;1482699;40;7003;-63
2021/06/08 01:42:35;;;;;;;;;;;;;;;;;;1482481;40;7008;-62
2021/06/08 01:43:39;;;;;;;;;;;;;;;;;;1483370;40;7147;-63
2021/06/08 01:44:43;;;;;;;;;;;;;;;;;;1483185;40;7091;-64
2021/06/08 01:45:50;;;;;;;;;;;;;;;;;;1478690;40;7861;-64
2021/06/08 01:46:52;;;;;;;;;;;;;;;;;;1479853;40;6999;-62
2021/06/08 01:47:54;;;;;;;;;;;;;;;;;;1483130;40;7124;-63
2021/06/08 01:48:57;;;;;;;;;;;;;;;;;;1482748;40;7027;-62
2021/06/08 01:50:00;;;;;;;;;;;;;;;;;;1482989;40;7015;-61
2021/06/08 01:51:08;;;;;;;;;;;;;;;;;;1479615;40;7062;-64
2021/06/08 01:52:23;;;;;;;;;;;;;;;;;;1478821;40;7990;-63
2021/06/08 01:53:42;;;;;;;;;;;;;;;;;;1479173;40;7210;-64
2021/06/08 01:54:50;;;;;;;;;;;;;;;;;;1478772;40;7906;-64
2021/06/08 01:56:00;;;;;;;;;;;;;;;;;;1478806;40;7003;-64
2021/06/08 01:57:13;;;;;;;;;;;;;;;;;;1478787;40;7052;-64
2021/06/08 01:58:29;;;;;;;;;;;;;;;;;;1478737;40;7231;-64
2021/06/08 01:59:37;;;;;;;;;;;;;;;;;;1478204;40;7007;-64
2021/06/08 02:00:50;;;;;;;;;;;;;;;;;;1478709;40;7186;-64
2021/06/08 02:02:05;;;;;;;;;;;;;;;;;;1478971;40;7008;-66
2021/06/08 02:03:15;;;;;;;;;;;;;;;;;;1478885;40;7048;-64
2021/06/08 02:04:23;;;;;;;;;;;;;;;;;;1479156;40;7219;-62
2021/06/08 02:05:26;;;;;;;;;;;;;;;;;;1478912;40;7027;-62
2021/06/08 02:06:28;;;;;;;;;;;;;;;;;;1478783;40;7039;-62
2021/06/08 02:07:31;;;;;;;;;;;;;;;;;;1478765;40;7133;-63
2021/06/08 02:08:43;;;;;;;;;;;;;;;;;;1478850;40;7000;-66
2021/06/08 02:09:45;;;;;;;;;;;;;;;;;;1478935;40;7000;-63
2021/06/08 02:10:52;;;;;;;;;;;;;;;;;;1478740;40;7912;-63
2021/06/08 02:11:55;;;;;;;;;;;;;;;;;;1478721;40;7107;-64
2021/06/08 02:13:09;;;;;;;;;;;;;;;;;;1478848;40;7290;-65
2021/06/08 02:14:17;;;;;;;;;;;;;;;;;;1479135;40;7048;-66
2021/06/08 02:15:22;;;;;;;;;;;;;;;;;;1479105;40;7075;-65
2021/06/08 02:16:31;;;;;;;;;;;;;;;;;;1478472;40;7008;-61
2021/06/08 02:17:39;;;;;;;;;;;;;;;;;;1481296;40;7055;-67
2021/06/08 02:18:44;;;;;;;;;;;;;;;;;;1478687;40;7210;-62
2021/06/08 02:19:48;;;;;;;;;;;;;;;;;;1478193;40;7897;-65
2021/06/08 02:20:52;;;;;;;;;;;;;;;;;;1478271;40;6984;-65
2021/06/08 02:21:57;;;;;;;;;;;;;;;;;;1481399;40;7110;-64
2021/06/08 02:23:01;;;;;;;;;;;;;;;;;;1480963;40;6999;-65
2021/06/08 02:24:04;;;;;;;;;;;;;;;;;;1478416;40;7035;-63
2021/06/08 02:25:25;;;;;;;;;;;;;;;;;;1482653;40;7004;-61
2021/06/08 02:26:27;;;;;;;;;;;;;;;;;;1479938;40;6995;-65
2021/06/08 02:27:31;;;;;;;;;;;;;;;;;;1478403;40;7975;-64
2021/06/08 02:28:36;;;;;;;;;;;;;;;;;;1478203;40;7040;-62
2021/06/08 02:29:41;;;;;;;;;;;;;;;;;;1478222;40;7940;-63
2021/06/08 02:30:46;;;;;;;;;;;;;;;;;;1482379;40;7170;-64
2021/06/08 02:31:50;;;;;;;;;;;;;;;;;;1479107;40;7271;-63
2021/06/08 02:32:54;;;;;;;;;;;;;;;;;;1478643;40;6996;-65
2021/06/08 02:33:57;;;;;;;;;;;;;;;;;;1478637;40;6999;-64
2021/06/08 02:35:01;;;;;;;;;;;;;;;;;;1478424;40;7007;-64
2021/06/08 02:36:04;;;;;;;;;;;;;;;;;;1478353;40;7939;-63
2021/06/08 02:37:10;;;;;;;;;;;;;;;;;;1477892;40;7039;-64
2021/06/08 02:38:14;;;;;;;;;;;;;;;;;;1478735;39;7112;-66
2021/06/08 02:39:17;;;;;;;;;;;;;;;;;;1478736;40;7221;-63
2021/06/08 02:40:21;;;;;;;;;;;;;;;;;;1478954;40;7171;-65
2021/06/08 02:41:25;;;;;;;;;;;;;;;;;;1478259;40;7191;-65
2021/06/08 02:42:28;;;;;;;;;;;;;;;;;;1479032;40;7027;-62
2021/06/08 02:43:32;;;;;;;;;;;;;;;;;;1478980;40;7023;-64
2021/06/08 02:44:35;;;;;;;;;;;;;;;;;;1478840;40;7253;-63
2021/06/08 02:45:40;;;;;;;;;;;;;;;;;;1478581;40;7031;-63
2021/06/08 02:46:42;;;;;;;;;;;;;;;;;;1479030;40;7003;-62
2021/06/08 02:47:47;;;;;;;;;;;;;;;;;;1483043;40;7905;-61
2021/06/08 02:48:51;;;;;;;;;;;;;;;;;;1483016;40;7008;-63
2021/06/08 02:49:55;;;;;;;;;;;;;;;;;;1483103;40;7113;-62
2021/06/08 02:50:58;;;;;;;;;;;;;;;;;;1479584;40;7932;-63
2021/06/08 02:52:01;;;;;;;;;;;;;;;;;;1478814;40;7472;-61
2021/06/08 02:53:05;;;;;;;;;;;;;;;;;;1478703;40;7991;-63
2021/06/08 02:54:08;;;;;;;;;;;;;;;;;;1478560;40;9373;-62
2021/06/08 02:55:13;;;;;;;;;;;;;;;;;;1478827;40;7977;-64
2021/06/08 02:56:16;;;;;;;;;;;;;;;;;;1478690;40;7067;-67
2021/06/08 02:57:21;;;;;;;;;;;;;;;;;;1478674;40;7917;-66
2021/06/08 02:58:25;;;;;;;;;;;;;;;;;;1478926;40;7173;-65
2021/06/08 02:59:29;;;;;;;;;;;;;;;;;;1478707;40;7060;-64
2021/06/08 03:00:31;;;;;;;;;;;;;;;;;;1478624;40;7007;-63
2021/06/08 03:01:39;;;;;;;;;;;;;;;;;;1478883;40;7054;-66
2021/06/08 03:02:45;;;;;;;;;;;;;;;;;;1478448;40;7007;-64
2021/06/08 03:03:51;;;;;;;;;;;;;;;;;;1478307;40;7000;-63
2021/06/08 03:05:05;;;;;;;;;;;;;;;;;;1479194;40;7052;-63
2021/06/08 03:06:16;;;;;;;;;;;;;;;;;;1479024;40;7008;-64
2021/06/08 03:07:22;;;;;;;;;;;;;;;;;;1479028;40;7027;-63
2021/06/08 03:08:31;;;;;;;;;;;;;;;;;;1479408;40;7003;-65
2021/06/08 03:09:37;;;;;;;;;;;;;;;;;;1479427;40;7109;-66
2021/06/08 03:10:42;;;;;;;;;;;;;;;;;;1479421;40;7119;-64
2021/06/08 03:24:21;;;;;;;;;;;;;;;;;;1478541;40;6960;-63
2021/06/08 03:25:25;;;;;;;;;;;;;;;;;;1479120;40;6999;-64
2021/06/08 03:26:29;;;;;;;;;;;;;;;;;;1478733;40;7983;-63
2021/06/08 03:27:32;;;;;;;;;;;;;;;;;;1479237;40;7118;-62
2021/06/08 03:28:36;;;;;;;;;;;;;;;;;;1478618;40;7003;-64
2021/06/08 03:29:39;;;;;;;;;;;;;;;;;;1478688;40;7878;-62
2021/06/08 03:30:42;;;;;;;;;;;;;;;;;;1479097;40;7901;-63
2021/06/08 03:31:46;;;;;;;;;;;;;;;;;;1479105;40;7023;-62
2021/06/08 03:32:51;;;;;;;;;;;;;;;;;;1481582;40;7137;-65
2021/06/08 03:33:55;;;;;;;;;;;;;;;;;;1480290;40;7051;-60
2021/06/08 03:34:58;;;;;;;;;;;;;;;;;;1479160;40;7124;-62
2021/06/08 03:36:02;;;;;;;;;;;;;;;;;;1478746;40;7027;-65
2021/06/08 03:37:06;;;;;;;;;;;;;;;;;;1478411;40;7235;-62
2021/06/08 03:38:09;;;;;;;;;;;;;;;;;;1479043;40;7003;-63
2021/06/08 03:39:13;;;;;;;;;;;;;;;;;;1479437;40;7888;-62
2021/06/08 03:40:17;;;;;;;;;;;;;;;;;;1479431;40;7000;-66
2021/06/08 03:41:21;;;;;;;;;;;;;;;;;;1479364;40;7055;-64
2021/06/08 03:42:23;;;;;;;;;;;;;;;;;;1479305;40;7031;-63
2021/06/08 03:43:26;;;;;;;;;;;;;;;;;;1478974;40;7004;-63
2021/06/08 03:44:29;;;;;;;;;;;;;;;;;;1478869;40;7019;-64
2021/06/08 03:45:32;;;;;;;;;;;;;;;;;;1478545;40;7927;-62
2021/06/08 03:46:35;;;;;;;;;;;;;;;;;;1479436;40;7055;-64
2021/06/08 03:47:37;;;;;;;;;;;;;;;;;;1482826;40;7016;-62
2021/06/08 03:48:41;;;;;;;;;;;;;;;;;;1478908;40;7019;-63
2021/06/08 03:49:45;;;;;;;;;;;;;;;;;;1479394;40;7218;-64
2021/06/08 03:50:51;;;;;;;;;;;;;;;;;;1481352;40;7122;-62
2021/06/08 03:51:55;;;;;;;;;;;;;;;;;;1483401;40;7312;-65
2021/06/08 03:52:57;;;;;;;;;;;;;;;;;;1483275;40;7110;-66
2021/06/08 03:54:00;;;;;;;;;;;;;;;;;;1483294;40;7000;-62
2021/06/08 03:55:04;;;;;;;;;;;;;;;;;;1482965;40;7051;-65
2021/06/08 03:56:10;;;;;;;;;;;;;;;;;;1483074;40;6999;-62
2021/06/08 03:57:13;;;;;;;;;;;;;;;;;;1483518;40;8587;-66
2021/06/08 03:58:18;;;;;;;;;;;;;;;;;;1483138;40;7031;-65
2021/06/08 03:59:25;;;;;;;;;;;;;;;;;;1483365;40;7007;-63
2021/06/08 04:00:29;;;;;;;;;;;;;;;;;;1480239;40;7952;-61
2021/06/08 04:01:32;;;;;;;;;;;;;;;;;;1479415;40;7111;-63
2021/06/08 04:02:38;;;;;;;;;;;;;;;;;;1479195;40;8825;-64
2021/06/08 04:03:42;;;;;;;;;;;;;;;;;;1479196;40;7004;-62
2021/06/08 04:04:45;;;;;;;;;;;;;;;;;;1478853;40;7024;-64
2021/06/08 04:05:47;;;;;;;;;;;;;;;;;;1479442;40;7020;-63
2021/06/08 04:06:50;;;;;;;;;;;;;;;;;;1483460;40;7122;-63
2021/06/08 04:07:52;;;;;;;;;;;;;;;;;;1483007;40;7007;-63
2021/06/08 04:08:55;;;;;;;;;;;;;;;;;;1483230;40;7942;-62
2021/06/08 04:09:58;;;;;;;;;;;;;;;;;;1483294;40;7012;-65
2021/06/08 04:11:00;;;;;;;;;;;;;;;;;;1483111;40;7831;-65
2021/06/08 04:12:03;;;;;;;;;;;;;;;;;;1483071;40;7966;-64
2021/06/08 04:13:06;;;;;;;;;;;;;;;;;;1483330;40;7732;-64
2021/06/08 04:14:10;;;;;;;;;;;;;;;;;;1483148;40;7439;-62
2021/06/08 04:15:13;;;;;;;;;;;;;;;;;;1483240;40;7921;-65
2021/06/08 04:16:18;;;;;;;;;;;;;;;;;;1482871;40;7003;-61
2021/06/08 04:17:21;;;;;;;;;;;;;;;;;;1482733;40;7035;-64
2021/06/08 04:18:23;;;;;;;;;;;;;;;;;;1479031;40;7012;-64
2021/06/08 04:19:26;;;;;;;;;;;;;;;;;;1479143;40;7156;-65
2021/06/08 04:20:30;;;;;;;;;;;;;;;;;;1478894;40;7009;-64
2021/06/08 04:21:32;;;;;;;;;;;;;;;;;;1480245;40;7012;-63
2021/06/08 04:22:36;;;;;;;;;;;;;;;;;;1479090;40;7040;-65
2021/06/08 04:23:39;;;;;;;;;;;;;;;;;;1478922;40;8830;-63
2021/06/08 04:24:41;;;;;;;;;;;;;;;;;;1481682;40;7013;-63
2021/06/08 04:25:44;;;;;;;;;;;;;;;;;;1483257;40;7003;-63
2021/06/08 04:26:46;;;;;;;;;;;;;;;;;;1482953;40;7912;-62
2021/06/08 04:27:49;;;;;;;;;;;;;;;;;;1479322;40;6999;-63
2021/06/08 04:28:52;;;;;;;;;;;;;;;;;;1479500;39;7116;-66
2021/06/08 04:29:56;;;;;;;;;;;;;;;;;;1478420;40;7003;-67
2021/06/08 04:30:58;;;;;;;;;;;;;;;;;;1479011;40;7214;-65
2021/06/08 04:32:01;;;;;;;;;;;;;;;;;;1478945;40;7958;-65
2021/06/08 04:33:03;;;;;;;;;;;;;;;;;;1479106;40;8018;-62
2021/06/08 04:34:06;;;;;;;;;;;;;;;;;;1478699;40;7031;-65
2021/06/08 04:35:09;;;;;;;;;;;;;;;;;;1478837;40;7954;-63
2021/06/08 04:36:13;;;;;;;;;;;;;;;;;;1478831;40;7035;-65
2021/06/08 04:37:16;;;;;;;;;;;;;;;;;;1479128;40;7058;-62
2021/06/08 04:38:19;;;;;;;;;;;;;;;;;;1478794;40;7962;-63
2021/06/08 04:39:21;;;;;;;;;;;;;;;;;;1478644;40;7971;-64
2021/06/08 04:40:24;;;;;;;;;;;;;;;;;;1479051;40;7000;-65
2021/06/08 04:41:27;;;;;;;;;;;;;;;;;;1479005;40;7134;-62
2021/06/08 04:42:30;;;;;;;;;;;;;;;;;;1479007;40;7010;-64
2021/06/08 04:43:33;;;;;;;;;;;;;;;;;;1478984;40;7007;-66
2021/06/08 04:44:36;;;;;;;;;;;;;;;;;;1478957;40;7859;-64
2021/06/08 04:45:39;;;;;;;;;;;;;;;;;;1479007;40;7199;-66
2021/06/08 04:46:41;;;;;;;;;;;;;;;;;;1479038;40;7986;-66
2021/06/08 04:47:44;;;;;;;;;;;;;;;;;;1482572;40;7035;-64
2021/06/08 04:48:48;;;;;;;;;;;;;;;;;;1483577;40;7941;-63
2021/06/08 04:49:50;;;;;;;;;;;;;;;;;;1482994;40;7003;-68
2021/06/08 04:50:53;;;;;;;;;;;;;;;;;;1480542;40;7218;-65
2021/06/08 04:51:55;;;;;;;;;;;;;;;;;;1478502;40;6999;-65
2021/06/08 04:53:01;;;;;;;;;;;;;;;;;;1478702;40;7143;-65
2021/06/08 04:54:04;;;;;;;;;;;;;;;;;;1479353;40;7401;-62
2021/06/08 04:55:08;;;;;;;;;;;;;;;;;;1479459;40;7007;-64
2021/06/08 04:56:11;;;;;;;;;;;;;;;;;;1479422;40;7113;-64
2021/06/08 04:57:14;;;;;;;;;;;;;;;;;;1478807;40;7003;-66
2021/06/08 04:58:17;;;;;;;;;;;;;;;;;;1479120;40;7083;-63
2021/06/08 04:59:40;;;;;;;;;;;;;;;;;;1479345;40;7198;-62
2021/06/08 05:00:51;;;;;;;;;;;;;;;;;;1478558;40;7909;-62
2021/06/08 05:01:54;;;;;;;;;;;;;;;;;;1479122;40;8015;-62
2021/06/08 05:02:57;;;;;;;;;;;;;;;;;;1478860;40;7004;-65
2021/06/08 05:04:08;;;;;;;;;;;;;;;;;;1479404;40;7046;-64
2021/06/08 05:05:17;;;;;;;;;;;;;;;;;;1479011;40;8010;-62
2021/06/08 05:06:24;;;;;;;;;;;;;;;;;;1479173;40;7106;-63
2021/06/08 05:07:29;;;;;;;;;;;;;;;;;;1479169;40;7016;-63
2021/06/08 05:08:35;;;;;;;;;;;;;;;;;;1479276;40;7191;-62
2021/06/08 05:09:43;;;;;;;;;;;;;;;;;;1479435;40;7048;-64
2021/06/08 05:10:52;;;;;;;;;;;;;;;;;;1479174;40;7043;-63
2021/06/08 05:11:56;;;;;;;;;;;;;;;;;;1479359;40;7020;-64
2021/06/08 05:13:02;;;;;;;;;;;;;;;;;;1479081;40;7035;-62
2021/06/08 05:14:07;;;;;;;;;;;;;;;;;;1479072;40;7119;-66
2021/06/08 05:15:14;;;;;;;;;;;;;;;;;;1478951;40;7000;-65
2021/06/08 05:16:17;;;;;;;;;;;;;;;;;;1479502;40;7015;-63
2021/06/08 05:17:23;;;;;;;;;;;;;;;;;;1479296;40;7035;-64
2021/06/08 05:18:27;;;;;;;;;;;;;;;;;;1482842;40;7012;-63
2021/06/08 05:19:32;;;;;;;;;;;;;;;;;;1481270;40;7003;-66
2021/06/08 05:20:39;;;;;;;;;;;;;;;;;;1481485;40;7950;-62
2021/06/08 05:21:42;;;;;;;;;;;;;;;;;;1480719;40;7023;-63
2021/06/08 05:22:48;;;;;;;;;;;;;;;;;;1478350;40;6995;-62
2021/06/08 05:23:53;;;;;;;;;;;;;;;;;;1478562;40;7011;-65
2021/06/08 05:24:56;;;;;;;;;;;;;;;;;;1478369;40;7871;-65
2021/06/08 05:25:59;;;;;;;;;;;;;;;;;;1477998;40;7007;-65
2021/06/08 05:27:02;;;;;;;;;;;;;;;;;;1478005;40;7441;-64
2021/06/08 05:28:05;;;;;;;;;;;;;;;;;;1482370;40;7039;-63
2021/06/08 05:29:08;;;;;;;;;;;;;;;;;;1482666;40;7063;-62
2021/06/08 05:30:12;;;;;;;;;;;;;;;;;;1482659;40;7016;-63
2021/06/08 05:31:19;;;;;;;;;;;;;;;;;;1482589;40;7044;-61
2021/06/08 05:32:21;;;;;;;;;;;;;;;;;;1482883;40;7897;-63
2021/06/08 05:33:24;;;;;;;;;;;;;;;;;;1482628;40;7024;-64
2021/06/08 05:34:27;;;;;;;;;;;;;;;;;;1483057;40;7003;-63
2021/06/08 05:35:30;;;;;;;;;;;;;;;;;;1482909;40;7043;-64
2021/06/08 05:36:34;;;;;;;;;;;;;;;;;;1482634;40;7879;-62
2021/06/08 05:37:44;;;;;;;;;;;;;;;;;;1482296;40;7000;-68
2021/06/08 05:38:49;;;;;;;;;;;;;;;;;;1482847;40;7008;-64
2021/06/08 05:39:52;;;;;;;;;;;;;;;;;;1482854;40;7910;-63
2021/06/08 05:40:54;;;;;;;;;;;;;;;;;;1483330;40;7008;-65
2021/06/08 05:41:56;;;;;;;;;;;;;;;;;;1482925;40;7039;-64
2021/06/08 05:42:59;;;;;;;;;;;;;;;;;;1482947;40;7004;-66
2021/06/08 05:44:02;;;;;;;;;;;;;;;;;;1482876;40;7047;-64
2021/06/08 05:45:07;;;;;;;;;;;;;;;;;;1482983;40;7938;-63
2021/06/08 05:46:10;;;;;;;;;;;;;;;;;;1483118;40;7003;-65
2021/06/08 05:47:13;;;;;;;;;;;;;;;;;;1480608;40;7003;-64
2021/06/08 05:48:19;;;;;;;;;;;;;;;;;;1478584;40;7027;-63
2021/06/08 05:49:22;;;;;;;;;;;;;;;;;;1478888;40;7907;-65
2021/06/08 05:50:24;;;;;;;;;;;;;;;;;;1479639;40;7027;-64
2021/06/08 05:51:32;;;;;;;;;;;;;;;;;;1483169;40;7024;-64
2021/06/08 05:52:36;;;;;;;;;;;;;;;;;;1483100;40;7035;-64
2021/06/08 05:53:41;;;;;;;;;;;;;;;;;;1482994;40;7003;-65
2021/06/08 05:54:43;;;;;;;;;;;;;;;;;;1482983;40;7906;-62
2021/06/08 05:55:49;;;;;;;;;;;;;;;;;;1482986;40;7121;-65
2021/06/08 05:56:52;;;;;;;;;;;;;;;;;;1482788;40;8032;-63
2021/06/08 05:57:55;;;;;;;;;;;;;;;;;;1483244;40;7934;-63
2021/06/08 05:58:58;;;;;;;;;;;;;;;;;;1482958;40;7000;-63
2021/06/08 06:00:04;;;;;;;;;;;;;;;;;;1482878;40;7928;-65
2021/06/08 06:01:11;;;;;;;;;;;;;;;;;;1483124;40;7170;-62
2021/06/08 06:02:14;;;;;;;;;;;;;;;;;;1483184;40;7781;-62
2021/06/08 06:03:18;;;;;;;;;;;;;;;;;;1483250;40;7031;-62
2021/06/08 06:04:24;;;;;;;;;;;;;;;;;;1483346;40;7011;-63
2021/06/08 06:05:27;;;;;;;;;;;;;;;;;;1483287;40;7862;-66
2021/06/08 06:06:30;;;;;;;;;;;;;;;;;;1483156;40;7063;-65
2021/06/08 06:07:33;;;;;;;;;;;;;;;;;;1482846;40;7044;-60
2021/06/08 06:08:35;;;;;;;;;;;;;;;;;;1482777;40;6999;-62
2021/06/08 06:09:38;;;;;;;;;;;;;;;;;;1482835;40;7035;-65
2021/06/08 06:10:41;;;;;;;;;;;;;;;;;;1482881;40;7108;-65
2021/06/08 06:11:47;;;;;;;;;;;;;;;;;;1483020;40;7112;-66
2021/06/08 06:12:52;;;;;;;;;;;;;;;;;;1483180;40;7033;-63
2021/06/08 06:14:04;;;;;;;;;;;;;;;;;;1483258;40;7008;-63
2021/06/08 06:15:08;;;;;;;;;;;;;;;;;;1483296;40;7195;-65
2021/06/08 06:16:11;;;;;;;;;;;;;;;;;;1483165;40;7031;-63
2021/06/08 06:17:15;;;;;;;;;;;;;;;;;;1482596;40;7977;-62
2021/06/08 06:18:19;;;;;;;;;;;;;;;;;;1478729;40;7012;-63
2021/06/08 06:19:25;;;;;;;;;;;;;;;;;;1479819;40;7246;-62
2021/06/08 06:20:28;;;;;;;;;;;;;;;;;;1478321;40;7012;-64
2021/06/08 06:21:31;;;;;;;;;;;;;;;;;;1480721;40;7249;-63
2021/06/08 06:22:35;;;;;;;;;;;;;;;;;;1478313;40;7039;-62
2021/06/08 06:23:39;;;;;;;;;;;;;;;;;;1482068;40;7203;-62
2021/06/08 06:24:41;;;;;;;;;;;;;;;;;;1482509;40;7199;-65
2021/06/08 06:25:44;;;;;;;;;;;;;;;;;;1482392;40;7127;-63
2021/06/08 06:26:47;;;;;;;;;;;;;;;;;;1482676;40;7007;-61
2021/06/08 06:27:49;;;;;;;;;;;;;;;;;;1482809;40;8041;-64
2021/06/08 06:28:53;;;;;;;;;;;;;;;;;;1482707;40;6999;-62
2021/06/08 06:29:56;;;;;;;;;;;;;;;;;;1482342;40;7035;-63
2021/06/08 06:30:59;;;;;;;;;;;;;;;;;;1482374;40;7035;-64
2021/06/08 06:32:02;;;;;;;;;;;;;;;;;;1482520;40;7035;-62
2021/06/08 06:33:05;;;;;;;;;;;;;;;;;;1482532;40;7034;-63
2021/06/08 06:34:07;;;;;;;;;;;;;;;;;;1483060;40;7030;-64
2021/06/08 06:35:10;;;;;;;;;;;;;;;;;;1483027;40;7023;-62
2021/06/08 06:36:15;;;;;;;;;;;;;;;;;;1482515;40;8271;-63
2021/06/08 06:37:24;;;;;;;;;;;;;;;;;;1482336;40;7409;-65
2021/06/08 06:38:27;;;;;;;;;;;;;;;;;;1482979;40;7012;-64
2021/06/08 06:39:31;;;;;;;;;;;;;;;;;;1478822;40;7768;-65
2021/06/08 06:40:36;;;;;;;;;;;;;;;;;;1479539;40;7000;-63
2021/06/08 06:41:41;;;;;;;;;;;;;;;;;;1479226;40;7008;-62
2021/06/08 06:42:45;;;;;;;;;;;;;;;;;;1479386;40;6999;-61
2021/06/08 06:43:50;;;;;;;;;;;;;;;;;;1479065;40;7008;-62
2021/06/08 06:44:54;;;;;;;;;;;;;;;;;;1479322;40;8650;-63
2021/06/08 06:45:56;;;;;;;;;;;;;;;;;;1479513;40;7878;-64
2021/06/08 06:46:59;;;;;;;;;;;;;;;;;;1480311;40;8350;-62
2021/06/08 06:48:03;;;;;;;;;;;;;;;;;;1483424;40;7015;-62
2021/06/08 06:49:07;;;;;;;;;;;;;;;;;;1483395;40;7034;-65
2021/06/08 06:50:10;;;;;;;;;;;;;;;;;;1483774;40;7003;-62
2021/06/08 06:51:13;;;;;;;;;;;;;;;;;;1479444;40;7797;-64
2021/06/08 06:52:17;;;;;;;;;;;;;;;;;;1479474;40;7206;-64
2021/06/08 06:53:19;;;;;;;;;;;;;;;;;;1479314;40;7807;-61
2021/06/08 06:54:23;;;;;;;;;;;;;;;;;;1479541;40;7116;-64
2021/06/08 06:55:27;;;;;;;;;;;;;;;;;;1479506;40;8829;-62
2021/06/08 06:56:30;;;;;;;;;;;;;;;;;;1479051;40;7023;-62
2021/06/08 06:57:33;;;;;;;;;;;;;;;;;;1479389;40;8264;-64
2021/06/08 06:58:36;;;;;;;;;;;;;;;;;;1479490;40;7007;-63
2021/06/08 06:59:39;;;;;;;;;;;;;;;;;;1479888;39;7036;-65
2021/06/08 07:00:42;;;;;;;;;;;;;;;;;;1479181;40;8488;-64
2021/06/08 07:01:46;;;;;;;;;;;;;;;;;;1479464;40;6999;-63
2021/06/08 07:02:50;;;;;;;;;;;;;;;;;;1479553;40;7027;-63
2021/06/08 07:03:54;;;;;;;;;;;;;;;;;;1483068;40;7034;-62
2021/06/08 07:04:57;;;;;;;;;;;;;;;;;;1482377;40;7055;-61
2021/06/08 07:06:01;;;;;;;;;;;;;;;;;;1479466;40;7012;-64
2021/06/08 07:07:06;;;;;;;;;;;;;;;;;;1479578;40;7903;-62
2021/06/08 07:08:09;;;;;;;;;;;;;;;;;;1479679;40;7833;-65
2021/06/08 07:09:13;;;;;;;;;;;;;;;;;;1479585;40;7012;-65
2021/06/08 07:10:18;;;;;;;;;;;;;;;;;;1479311;40;7896;-63
2021/06/08 07:11:22;;;;;;;;;;;;;;;;;;1479341;40;6995;-64
2021/06/08 07:12:25;;;;;;;;;;;;;;;;;;1479483;40;6999;-64
2021/06/08 07:13:27;;;;;;;;;;;;;;;;;;1479386;40;7950;-64
2021/06/08 07:14:30;;;;;;;;;;;;;;;;;;1479376;40;7907;-63
2021/06/08 07:15:34;;;;;;;;;;;;;;;;;;1479519;40;7003;-63
2021/06/08 07:16:37;;;;;;;;;;;;;;;;;;1479380;40;7438;-63
2021/06/08 07:17:42;;;;;;;;;;;;;;;;;;1481211;40;7324;-63
2021/06/08 07:18:46;;;;;;;;;;;;;;;;;;1481349;40;7120;-63
2021/06/08 07:19:52;;;;;;;;;;;;;;;;;;1483011;40;7126;-63
2021/06/08 07:20:54;;;;;;;;;;;;;;;;;;1480877;40;6999;-65
2021/06/08 07:21:58;;;;;;;;;;;;;;;;;;1482500;40;7071;-66
2021/06/08 07:23:18;;;;;;;;;;;;;;;;;;1480460;40;7045;-65
2021/06/08 07:24:21;;;;;;;;;;;;;;;;;;1479148;40;7934;-65
2021/06/08 07:25:24;;;;;;;;;;;;;;;;;;1478807;40;8033;-63
2021/06/08 07:26:27;;;;;;;;;;;;;;;;;;1482254;40;7067;-63
2021/06/08 07:27:29;;;;;;;;;;;;;;;;;;1482888;40;7003;-62
2021/06/08 07:28:33;;;;;;;;;;;;;;;;;;1483179;40;6995;-64
2021/06/08 07:29:35;;;;;;;;;;;;;;;;;;1483217;40;7024;-64
2021/06/08 07:30:41;;;;;;;;;;;;;;;;;;1482998;40;7043;-62
2021/06/08 07:31:58;;;;;;;;;;;;;;;;;;1483327;40;7007;-65
2021/06/08 07:33:08;;;;;;;;;;;;;;;;;;1478956;40;7061;-64
2021/06/08 07:34:33;;;;;;;;;;;;;;;;;;1479357;40;7007;-66
2021/06/08 07:36:05;;;;;;;;;;;;;;;;;;1479357;40;7008;-64
2021/06/08 07:37:14;;;;;;;;;;;;;;;;;;1478530;40;7930;-65
2021/06/08 07:38:22;;;;;;;;;;;;;;;;;;1479501;40;7003;-64
2021/06/08 07:39:41;;;;;;;;;;;;;;;;;;1479396;40;7008;-63